Time;durP1;ratioP1;P1;durP2;ratioP2;P2;SDS_P1;SDS_P2;PMS_P1;PMS_P2;Temp;Humidity;BMP_temperature;BMP_pressure;BME280_temperature;BME280_humidity;BME280_pressure;Samples;Min_cycle;Max_cycle;Signal;HPM_P1;HPM_P2
2022/03/15 00:01:03;;;;;;;43.95;26.38;;;21.10;50.70;;;;;;4926515;29;20031;-75
2022/03/15 00:03:30;;;;;;;42.20;25.90;;;21.20;50.80;;;;;;4936802;29;20032;-74
2022/03/15 00:05:56;;;;;;;40.17;25.33;;;21.10;50.80;;;;;;4936911;29;20560;-74
2022/03/15 00:08:22;;;;;;;47.83;24.88;;;21.20;50.80;;;;;;4952045;29;20123;-74
2022/03/15 00:10:48;;;;;;;40.88;24.83;;;21.10;51.00;;;;;;4919430;29;20122;-75
2022/03/15 00:13:15;;;;;;;42.33;24.48;;;21.20;50.90;;;;;;4936998;29;20040;-75
2022/03/15 00:15:42;;;;;;;42.13;25.15;;;21.20;50.50;;;;;;4935518;29;20043;-75
2022/03/15 00:18:08;;;;;;;42.75;24.83;;;21.20;50.30;;;;;;4936890;29;20028;-75
2022/03/15 00:20:34;;;;;;;36.58;23.42;;;21.20;50.30;;;;;;4936266;29;20082;-75
2022/03/15 00:23:00;;;;;;;38.65;24.02;;;21.20;50.10;;;;;;4936531;29;20059;-76
2022/03/15 00:25:27;;;;;;;36.42;22.92;;;21.20;50.10;;;;;;4936704;29;20034;-72
2022/03/15 00:27:54;;;;;;;38.67;23.25;;;21.20;50.00;;;;;;4937076;29;20095;-74
2022/03/15 00:30:22;;;;;;;33.90;22.65;;;21.20;50.00;;;;;;4936289;29;20472;-74
2022/03/15 00:32:51;;;;;;;39.33;24.08;;;21.20;50.10;;;;;;4934960;29;20036;-74
2022/03/15 00:35:18;;;;;;;35.63;21.58;;;21.20;50.00;;;;;;4935495;29;20031;-73
2022/03/15 00:37:48;;;;;;;36.88;22.67;;;21.20;50.00;;;;;;4936498;29;20043;-73
2022/03/15 00:40:15;;;;;;;34.53;22.02;;;21.20;50.00;;;;;;4934825;29;20496;-74
2022/03/15 00:42:43;;;;;;;34.83;21.80;;;21.10;49.90;;;;;;4935699;29;20428;-74
2022/03/15 00:45:09;;;;;;;37.50;22.00;;;21.20;50.00;;;;;;4936569;29;20039;-73
2022/03/15 00:47:35;;;;;;;34.15;21.40;;;21.20;50.00;;;;;;4919262;29;20036;-73
2022/03/15 00:50:01;;;;;;;44.10;23.27;;;21.10;50.00;;;;;;4919318;29;20040;-73
2022/03/15 00:52:27;;;;;;;31.38;21.15;;;21.10;50.00;;;;;;4934606;29;20543;-73
2022/03/15 00:54:53;;;;;;;30.50;20.42;;;21.10;49.90;;;;;;4934810;29;20049;-74
2022/03/15 00:57:18;;;;;;;35.95;20.90;;;21.10;50.00;;;;;;4935120;29;20160;-73
2022/03/15 00:59:45;;;;;;;35.70;21.08;;;21.10;50.00;;;;;;4934649;29;20119;-73
2022/03/15 01:02:11;;;;;;;33.63;21.17;;;21.10;50.40;;;;;;4934483;29;20119;-73
2022/03/15 01:04:37;;;;;;;39.33;21.15;;;21.10;50.30;;;;;;4935125;29;20457;-73
2022/03/15 01:07:03;;;;;;;38.72;20.38;;;21.20;51.50;;;;;;4934781;29;20122;-73
2022/03/15 01:09:29;;;;;;;39.17;20.67;;;21.20;51.20;;;;;;4950321;28;20044;-74
2022/03/15 01:11:56;;;;;;;42.15;21.08;;;21.20;51.80;;;;;;4950271;28;20088;-73
2022/03/15 01:14:22;;;;;;;34.45;19.90;;;21.20;51.20;;;;;;4950417;28;20504;-73
2022/03/15 01:16:48;;;;;;;35.15;20.42;;;21.20;50.90;;;;;;4934513;29;20059;-72
2022/03/15 01:19:14;;;;;;;31.13;18.75;;;21.20;50.70;;;;;;4933801;29;20107;-72
2022/03/15 01:21:40;;;;;;;38.47;20.27;;;21.20;50.80;;;;;;4933829;29;20047;-72
2022/03/15 01:24:08;;;;;;;33.92;19.25;;;21.20;51.80;;;;;;4903221;29;20050;-72
2022/03/15 01:26:34;;;;;;;36.95;18.98;;;21.20;51.10;;;;;;4929418;29;20032;-72
2022/03/15 01:29:01;;;;;;;41.40;19.85;;;21.30;51.60;;;;;;4934359;29;20492;-72
2022/03/15 01:31:27;;;;;;;42.45;19.88;;;21.20;51.50;;;;;;4917834;29;20036;-73
2022/03/15 01:33:53;;;;;;;34.10;18.40;;;21.20;51.60;;;;;;4934327;29;20028;-71
2022/03/15 01:36:19;;;;;;;31.38;19.60;;;21.20;51.20;;;;;;4935112;29;20082;-72
2022/03/15 01:38:47;;;;;;;38.53;19.38;;;21.20;51.20;;;;;;4950113;29;20028;-72
2022/03/15 01:41:13;;;;;;;30.33;18.02;;;21.10;51.00;;;;;;4899209;29;20413;-72
2022/03/15 01:43:41;;;;;;;31.58;18.65;;;21.20;51.00;;;;;;4916385;29;20159;-72
2022/03/15 01:46:07;;;;;;;33.30;18.40;;;21.10;50.90;;;;;;4916315;29;20370;-72
2022/03/15 01:48:34;;;;;;;30.65;18.23;;;21.10;51.00;;;;;;4930724;29;20028;-72
2022/03/15 01:50:59;;;;;;;33.40;17.92;;;21.10;51.00;;;;;;4929898;29;20036;-72
2022/03/15 01:53:26;;;;;;;34.95;18.65;;;21.10;51.00;;;;;;4934837;29;20409;-72
2022/03/15 01:55:52;;;;;;;31.65;17.70;;;21.10;51.00;;;;;;4933041;29;20032;-72
2022/03/15 01:58:18;;;;;;;31.83;17.40;;;21.10;51.00;;;;;;4933661;29;20445;-72
2022/03/15 02:00:45;;;;;;;27.40;17.38;;;21.10;51.00;;;;;;4933276;29;20070;-72
2022/03/15 02:03:11;;;;;;;29.15;16.92;;;21.10;51.00;;;;;;4917926;29;20086;-72
2022/03/15 02:05:37;;;;;;;30.20;17.58;;;21.10;51.40;;;;;;4918396;29;20039;-72
2022/03/15 02:08:14;;;;;;;31.60;17.17;;;21.10;51.00;;;;;;4933541;29;20408;-72
2022/03/15 02:10:40;;;;;;;30.83;16.90;;;21.10;51.10;;;;;;4949256;29;20040;-73
2022/03/15 02:13:07;;;;;;;30.10;16.98;;;21.10;51.10;;;;;;4933808;29;20037;-73
2022/03/15 02:15:33;;;;;;;29.75;16.10;;;21.10;51.10;;;;;;4949648;28;20457;-72
2022/03/15 02:17:59;;;;;;;29.88;16.85;;;21.10;51.00;;;;;;4933681;29;20051;-72
2022/03/15 02:20:26;;;;;;;27.52;16.58;;;21.10;51.00;;;;;;4929197;29;20062;-72
2022/03/15 02:22:52;;;;;;;28.98;17.05;;;21.10;51.00;;;;;;4930100;29;20040;-72
2022/03/15 02:25:18;;;;;;;31.52;16.70;;;21.10;51.10;;;;;;4915338;29;20036;-73
2022/03/15 02:27:44;;;;;;;29.70;16.98;;;21.10;51.00;;;;;;4930670;29;20127;-73
2022/03/15 02:30:11;;;;;;;24.80;15.80;;;21.10;51.40;;;;;;4920839;29;20138;-73
2022/03/15 02:32:38;;;;;;;26.35;15.82;;;21.10;52.30;;;;;;4934382;29;20031;-73
2022/03/15 02:35:05;;;;;;;28.38;16.63;;;21.20;51.90;;;;;;4949007;28;20535;-73
2022/03/15 02:37:32;;;;;;;25.98;15.05;;;21.10;52.10;;;;;;4917656;29;20036;-73
2022/03/15 02:39:58;;;;;;;24.67;15.25;;;21.10;52.00;;;;;;4932673;29;20028;-73
2022/03/15 02:42:23;;;;;;;31.63;16.50;;;21.10;51.90;;;;;;4949325;28;20094;-72
2022/03/15 02:44:49;;;;;;;26.95;15.38;;;21.20;52.10;;;;;;4931831;29;20024;-72
2022/03/15 02:47:15;;;;;;;26.77;15.63;;;21.10;52.00;;;;;;4930237;29;20047;-73
2022/03/15 02:49:41;;;;;;;26.90;15.07;;;21.10;52.20;;;;;;4933549;29;20455;-73
2022/03/15 02:52:10;;;;;;;24.40;14.68;;;21.10;53.10;;;;;;4934009;29;20039;-73
2022/03/15 02:54:40;;;;;;;29.75;14.85;;;21.10;52.40;;;;;;4934235;29;20047;-73
2022/03/15 02:57:09;;;;;;;26.67;15.02;;;21.10;52.20;;;;;;4934080;29;20263;-73
2022/03/15 02:59:35;;;;;;;22.33;13.50;;;21.10;52.30;;;;;;4933442;29;20103;-73
2022/03/15 03:02:01;;;;;;;27.15;14.52;;;21.10;52.30;;;;;;4933974;29;20031;-73
2022/03/15 03:04:27;;;;;;;28.25;15.57;;;21.10;52.20;;;;;;4933716;29;20036;-73
2022/03/15 03:06:53;;;;;;;24.50;14.15;;;21.10;52.40;;;;;;4935157;29;20511;-73
2022/03/15 03:09:18;;;;;;;22.55;13.57;;;21.10;52.40;;;;;;4937422;29;20103;-73
2022/03/15 03:11:44;;;;;;;23.67;14.60;;;21.20;52.30;;;;;;4933289;29;20050;-72
2022/03/15 03:14:13;;;;;;;26.27;14.82;;;21.10;52.30;;;;;;4922574;29;20023;-73
2022/03/15 03:16:39;;;;;;;23.75;14.90;;;21.10;52.30;;;;;;4937803;29;20027;-73
2022/03/15 03:19:08;;;;;;;24.48;13.85;;;21.10;52.20;;;;;;4938037;29;20027;-73
2022/03/15 03:21:36;;;;;;;25.75;13.73;;;21.10;52.30;;;;;;4936023;29;20028;-73
2022/03/15 03:24:06;;;;;;;24.10;13.30;;;21.10;52.30;;;;;;4936757;29;20039;-73
2022/03/15 03:26:38;;;;;;;27.38;14.57;;;21.10;52.30;;;;;;4952544;29;20032;-73
2022/03/15 03:29:09;;;;;;;22.13;14.07;;;21.10;52.00;;;;;;4936782;29;20385;-73
2022/03/15 03:31:37;;;;;;;25.17;13.88;;;21.10;52.40;;;;;;4937134;29;20151;-73
2022/03/15 03:34:03;;;;;;;21.25;12.20;;;21.20;52.40;;;;;;4952742;28;20066;-73
2022/03/15 03:36:31;;;;;;;22.65;13.23;;;21.20;52.40;;;;;;4937528;29;20028;-73
2022/03/15 03:38:57;;;;;;;20.90;13.25;;;21.10;52.20;;;;;;4937582;29;20051;-73
2022/03/15 03:41:24;;;;;;;25.35;13.13;;;21.20;52.20;;;;;;4951435;28;20160;-73
2022/03/15 03:43:51;;;;;;;23.17;13.00;;;21.10;52.10;;;;;;4937360;29;20397;-73
2022/03/15 03:46:17;;;;;;;24.02;13.60;;;21.10;52.10;;;;;;4937315;29;20618;-73
2022/03/15 03:48:44;;;;;;;22.92;13.88;;;21.10;52.20;;;;;;4937568;29;20167;-73
2022/03/15 03:51:12;;;;;;;20.60;13.05;;;21.10;52.10;;;;;;4936745;29;20032;-73
2022/03/15 03:53:38;;;;;;;21.40;12.52;;;21.10;52.00;;;;;;4920440;29;20032;-73
2022/03/15 03:56:04;;;;;;;21.40;13.13;;;21.10;52.80;;;;;;4936055;29;20082;-71
2022/03/15 03:58:29;;;;;;;21.23;12.73;;;21.10;52.20;;;;;;4935687;29;20031;-73
2022/03/15 04:00:55;;;;;;;21.70;12.82;;;21.10;52.10;;;;;;4936470;29;20030;-73
2022/03/15 04:03:22;;;;;;;21.02;12.80;;;21.10;52.30;;;;;;4937029;29;20106;-73
2022/03/15 04:05:51;;;;;;;21.73;11.93;;;21.10;52.10;;;;;;4951914;29;20123;-73
2022/03/15 04:08:17;;;;;;;20.77;12.55;;;21.10;52.10;;;;;;4935643;29;20031;-73
2022/03/15 04:10:46;;;;;;;21.83;12.43;;;21.10;52.10;;;;;;4936523;29;20478;-73
2022/03/15 04:13:17;;;;;;;17.98;11.30;;;21.10;52.00;;;;;;4937100;29;20031;-72
2022/03/15 04:15:44;;;;;;;19.52;12.07;;;21.10;52.00;;;;;;4935944;29;20418;-73
2022/03/15 04:18:10;;;;;;;21.25;11.85;;;21.10;52.10;;;;;;4936110;29;20027;-73
2022/03/15 04:20:36;;;;;;;19.50;11.75;;;21.10;52.40;;;;;;4936213;29;20024;-72
2022/03/15 04:23:02;;;;;;;20.13;11.85;;;21.10;52.40;;;;;;4936540;29;20469;-73
2022/03/15 04:25:28;;;;;;;19.63;11.40;;;21.10;52.60;;;;;;4936633;29;20412;-73
2022/03/15 04:27:56;;;;;;;18.65;11.18;;;21.10;52.30;;;;;;4919996;29;20031;-73
2022/03/15 04:30:24;;;;;;;18.88;11.25;;;21.10;52.20;;;;;;4934656;29;20404;-73
2022/03/15 04:32:50;;;;;;;17.75;10.25;;;21.10;52.00;;;;;;4936302;29;20548;-73
2022/03/15 04:35:16;;;;;;;20.45;11.48;;;21.10;51.70;;;;;;4935212;29;20040;-73
2022/03/15 04:37:42;;;;;;;17.30;10.40;;;21.10;51.80;;;;;;4936716;29;20086;-73
2022/03/15 04:40:09;;;;;;;20.52;11.65;;;21.20;51.90;;;;;;4919323;29;20035;-73
2022/03/15 04:42:35;;;;;;;20.20;11.18;;;21.10;52.00;;;;;;4936064;29;20032;-72
2022/03/15 04:45:01;;;;;;;17.80;11.52;;;21.10;52.10;;;;;;4936191;29;20543;-73
2022/03/15 04:47:29;;;;;;;19.58;11.63;;;21.10;52.40;;;;;;4935125;29;20082;-73
2022/03/15 04:49:55;;;;;;;20.17;11.32;;;21.10;52.20;;;;;;4934602;29;20040;-73
2022/03/15 04:52:20;;;;;;;19.20;10.93;;;21.10;52.50;;;;;;4934588;29;20038;-72
2022/03/15 04:54:46;;;;;;;17.42;11.43;;;21.10;52.30;;;;;;4935034;29;20062;-73
2022/03/15 04:57:12;;;;;;;20.08;10.80;;;21.10;52.30;;;;;;4936315;29;20362;-73
2022/03/15 04:59:37;;;;;;;17.20;9.70;;;21.10;52.10;;;;;;4936005;29;20028;-73
2022/03/15 05:02:03;;;;;;;18.30;10.90;;;21.10;52.10;;;;;;4935657;29;20492;-73
2022/03/15 05:04:29;;;;;;;19.00;10.35;;;21.10;52.30;;;;;;4934678;29;20481;-72
2022/03/15 05:06:55;;;;;;;18.98;10.70;;;21.10;52.20;;;;;;4936050;29;20031;-73
2022/03/15 05:09:20;;;;;;;20.00;11.05;;;21.10;52.10;;;;;;4934476;29;20460;-73
2022/03/15 05:11:46;;;;;;;17.23;10.68;;;21.10;52.10;;;;;;4935747;29;20043;-73
2022/03/15 05:14:14;;;;;;;16.10;10.18;;;21.10;51.90;;;;;;4936191;29;20028;-73
2022/03/15 05:16:41;;;;;;;16.90;10.60;;;21.10;51.90;;;;;;4935919;29;20551;-73
2022/03/15 05:19:07;;;;;;;17.35;10.45;;;21.10;51.70;;;;;;4934341;29;20437;-73
2022/03/15 05:21:32;;;;;;;17.73;10.40;;;21.10;51.70;;;;;;4935016;29;20063;-73
2022/03/15 05:23:58;;;;;;;16.63;9.93;;;21.10;51.50;;;;;;4935256;29;20511;-73
2022/03/15 05:26:24;;;;;;;19.50;10.38;;;21.10;51.50;;;;;;4935672;29;20031;-73
2022/03/15 05:28:51;;;;;;;17.90;10.02;;;21.10;51.50;;;;;;4935724;29;20039;-73
2022/03/15 05:31:23;;;;;;;16.08;10.07;;;21.10;51.50;;;;;;4934770;29;20032;-73
2022/03/15 05:33:51;;;;;;;17.83;10.57;;;21.10;51.50;;;;;;4934371;29;20439;-73
2022/03/15 05:36:18;;;;;;;17.00;9.80;;;21.10;51.40;;;;;;4935608;29;20074;-73
2022/03/15 05:38:44;;;;;;;16.42;9.93;;;21.10;51.30;;;;;;4934505;29;20126;-72
2022/03/15 05:41:10;;;;;;;16.70;10.20;;;21.10;51.30;;;;;;4930305;29;20389;-73
2022/03/15 05:43:37;;;;;;;15.32;9.55;;;21.10;51.80;;;;;;4916635;29;20028;-73
2022/03/15 05:46:04;;;;;;;17.02;10.00;;;21.10;51.10;;;;;;4915037;29;20075;-73
2022/03/15 05:48:31;;;;;;;15.77;8.93;;;21.10;51.10;;;;;;4916283;29;20035;-73
2022/03/15 05:50:57;;;;;;;16.55;9.80;;;21.10;51.10;;;;;;4918808;29;20066;-73
2022/03/15 05:53:23;;;;;;;15.85;9.23;;;21.10;51.10;;;;;;4934803;29;20032;-73
2022/03/15 05:55:49;;;;;;;15.40;9.52;;;21.10;51.60;;;;;;4934124;29;20043;-73
2022/03/15 05:58:16;;;;;;;15.27;9.60;;;21.10;51.70;;;;;;4933672;29;20055;-73
2022/03/15 06:00:46;;;;;;;17.10;9.90;;;21.10;51.90;;;;;;4933493;29;20068;-73
2022/03/15 06:03:11;;;;;;;15.93;9.80;;;21.10;51.70;;;;;;4917818;29;20042;-73
2022/03/15 06:05:38;;;;;;;16.08;9.02;;;21.10;51.90;;;;;;4934090;29;20039;-73
2022/03/15 06:08:04;;;;;;;16.60;9.57;;;21.10;52.00;;;;;;4934941;29;20031;-73
2022/03/15 06:10:30;;;;;;;16.15;9.48;;;21.10;52.00;;;;;;4934435;29;20032;-73
2022/03/15 06:12:56;;;;;;;15.20;8.80;;;21.10;52.00;;;;;;4934421;29;20400;-73
2022/03/15 06:15:22;;;;;;;16.70;9.20;;;21.10;51.90;;;;;;4917819;29;20444;-72
2022/03/15 06:17:51;;;;;;;15.90;9.45;;;21.10;51.80;;;;;;4946569;28;20031;-73
2022/03/15 06:20:18;;;;;;;17.05;9.20;;;21.10;51.70;;;;;;4949421;29;20035;-73
2022/03/15 06:22:46;;;;;;;15.45;8.60;;;21.10;51.80;;;;;;4933782;29;20035;-72
2022/03/15 06:25:13;;;;;;;15.25;9.25;;;21.10;51.70;;;;;;4933698;29;20118;-73
2022/03/15 06:27:39;;;;;;;13.75;8.27;;;21.10;52.00;;;;;;4934424;29;20046;-72
2022/03/15 06:30:06;;;;;;;16.55;8.88;;;21.20;51.90;;;;;;4933725;29;20038;-72
2022/03/15 06:32:33;;;;;;;17.38;9.18;;;21.10;51.70;;;;;;4932604;29;20035;-72
2022/03/15 06:35:02;;;;;;;15.27;9.10;;;21.10;51.60;;;;;;4901535;29;20028;-73
2022/03/15 06:37:28;;;;;;;15.05;8.60;;;21.10;51.60;;;;;;4934375;29;20035;-73
2022/03/15 06:39:55;;;;;;;16.25;8.60;;;21.10;51.60;;;;;;4934056;29;20127;-73
2022/03/15 06:42:22;;;;;;;16.95;9.18;;;21.10;52.10;;;;;;4932534;29;20396;-74
2022/03/15 06:44:48;;;;;;;13.93;8.45;;;21.10;52.10;;;;;;4917521;29;20039;-74
2022/03/15 06:47:14;;;;;;;15.52;8.50;;;21.10;52.30;;;;;;4933976;29;20024;-75
2022/03/15 06:49:40;;;;;;;16.35;8.10;;;21.10;52.20;;;;;;4933849;29;20039;-74
2022/03/15 06:52:06;;;;;;;13.02;8.07;;;21.10;52.10;;;;;;4933733;29;20484;-74
2022/03/15 06:54:31;;;;;;;14.90;9.00;;;21.10;52.70;;;;;;4934284;29;20023;-74
2022/03/15 06:56:57;;;;;;;13.07;7.80;;;21.10;52.70;;;;;;4933906;29;20051;-75
2022/03/15 06:59:24;;;;;;;15.75;8.77;;;21.10;52.50;;;;;;4932700;29;20111;-74
2022/03/15 07:01:50;;;;;;;14.52;8.43;;;21.20;52.80;;;;;;4948754;28;20039;-74
2022/03/15 07:04:17;;;;;;;15.65;8.90;;;21.10;52.60;;;;;;4934164;29;20133;-74
2022/03/15 07:06:44;;;;;;;14.23;7.65;;;21.20;52.60;;;;;;4934024;29;20038;-74
2022/03/15 07:09:10;;;;;;;13.48;7.78;;;21.20;52.60;;;;;;4933950;29;20027;-74
2022/03/15 07:11:36;;;;;;;14.48;8.25;;;21.20;52.50;;;;;;4933229;29;20075;-74
2022/03/15 07:14:03;;;;;;;13.68;7.93;;;21.20;52.50;;;;;;4933698;29;20472;-73
2022/03/15 07:16:28;;;;;;;16.58;7.82;;;21.20;52.90;;;;;;4933957;29;20481;-74
2022/03/15 07:18:55;;;;;;;13.95;8.23;;;21.20;52.50;;;;;;4932617;29;20107;-74
2022/03/15 07:21:21;;;;;;;13.75;8.23;;;21.20;52.50;;;;;;4933410;29;20024;-74
2022/03/15 07:23:46;;;;;;;11.88;7.53;;;21.20;52.60;;;;;;4933683;29;20400;-73
2022/03/15 07:26:12;;;;;;;15.10;8.27;;;21.20;52.60;;;;;;4917020;29;20393;-73
2022/03/15 07:28:38;;;;;;;13.75;7.82;;;21.20;52.70;;;;;;4933842;29;20547;-73
2022/03/15 07:31:04;;;;;;;12.60;7.97;;;21.20;52.50;;;;;;4931977;29;20024;-73
2022/03/15 07:33:31;;;;;;;14.07;7.63;;;21.20;52.50;;;;;;4948661;29;20035;-73
2022/03/15 07:35:59;;;;;;;14.43;7.60;;;21.20;52.90;;;;;;4933744;29;20028;-75
2022/03/15 07:38:25;;;;;;;13.13;7.68;;;21.20;52.80;;;;;;4917009;29;20032;-75
2022/03/15 07:40:52;;;;;;;16.92;8.38;;;21.20;53.00;;;;;;4933387;29;20028;-75
2022/03/15 07:43:22;;;;;;;14.32;7.60;;;21.20;52.80;;;;;;4917068;29;20035;-75
2022/03/15 07:45:47;;;;;;;13.65;7.72;;;21.20;52.80;;;;;;4933450;29;20034;-75
2022/03/15 07:48:14;;;;;;;12.43;7.10;;;21.20;53.00;;;;;;4933941;29;20114;-75
2022/03/15 07:50:39;;;;;;;13.15;7.32;;;21.20;52.80;;;;;;4933280;29;20032;-75
2022/03/15 07:53:05;;;;;;;12.85;7.60;;;21.20;53.00;;;;;;4934324;29;20071;-75
2022/03/15 07:55:31;;;;;;;14.40;7.47;;;21.20;52.90;;;;;;4937089;29;20027;-75
2022/03/15 07:57:57;;;;;;;14.35;8.02;;;21.20;53.00;;;;;;4937179;29;20491;-75
2022/03/15 08:00:22;;;;;;;14.30;7.75;;;21.20;52.90;;;;;;4936744;29;20070;-75
2022/03/15 08:02:51;;;;;;;14.38;7.20;;;21.30;52.90;;;;;;4951348;28;20032;-75
2022/03/15 08:05:17;;;;;;;13.63;7.50;;;21.30;53.00;;;;;;4937324;29;20248;-75
2022/03/15 08:07:42;;;;;;;13.10;7.60;;;21.30;52.90;;;;;;4919837;29;20044;-75
2022/03/15 08:10:10;;;;;;;13.40;7.47;;;21.30;52.90;;;;;;4951447;28;20023;-74
2022/03/15 08:12:37;;;;;;;13.50;7.55;;;21.30;52.90;;;;;;4936337;29;20115;-75
2022/03/15 08:15:07;;;;;;;11.57;7.00;;;21.30;53.10;;;;;;4936710;29;20034;-75
2022/03/15 08:17:34;;;;;;;12.13;7.13;;;21.30;52.90;;;;;;4935514;29;20030;-75
2022/03/15 08:20:00;;;;;;;15.18;7.47;;;21.30;52.90;;;;;;4936614;29;20046;-75
2022/03/15 08:22:28;;;;;;;14.40;7.40;;;21.30;52.90;;;;;;4951226;28;20114;-74
2022/03/15 08:24:55;;;;;;;14.48;7.15;;;21.30;53.00;;;;;;4936533;29;20102;-74
2022/03/15 08:27:21;;;;;;;12.18;7.22;;;21.30;53.10;;;;;;4936677;29;20484;-74
2022/03/15 08:29:47;;;;;;;12.90;6.90;;;21.30;53.10;;;;;;4936081;29;20059;-75
2022/03/15 08:32:12;;;;;;;11.38;6.95;;;21.40;53.20;;;;;;4935081;29;20039;-74
2022/03/15 08:34:38;;;;;;;13.45;6.65;;;21.40;53.20;;;;;;4936406;29;20043;-74
2022/03/15 08:37:05;;;;;;;12.25;7.10;;;21.30;53.10;;;;;;4935204;29;20031;-75
2022/03/15 08:39:31;;;;;;;12.70;6.88;;;21.40;53.10;;;;;;4936125;29;20032;-75
2022/03/15 08:41:57;;;;;;;11.48;6.70;;;21.40;53.10;;;;;;4936167;29;20453;-74
2022/03/15 08:44:23;;;;;;;13.50;7.00;;;21.40;53.40;;;;;;4950946;28;20507;-75
2022/03/15 08:46:50;;;;;;;12.13;6.88;;;21.40;53.10;;;;;;4936378;29;20028;-75
2022/03/15 08:49:17;;;;;;;12.93;6.93;;;21.40;53.10;;;;;;4935112;29;20039;-75
2022/03/15 08:51:44;;;;;;;12.30;6.53;;;21.40;53.10;;;;;;4935538;29;20429;-74
2022/03/15 08:54:09;;;;;;;13.35;6.75;;;21.40;53.10;;;;;;4935056;29;20032;-75
2022/03/15 08:56:39;;;;;;;10.98;7.03;;;21.40;53.10;;;;;;4950730;29;20152;-75
2022/03/15 08:59:04;;;;;;;11.60;6.35;;;21.40;53.10;;;;;;4936038;29;20114;-75
2022/03/15 09:01:30;;;;;;;9.75;6.53;;;21.40;53.10;;;;;;4935302;29;20278;-75
2022/03/15 09:03:56;;;;;;;11.20;6.30;;;21.40;53.00;;;;;;4935679;29;20063;-74
2022/03/15 09:06:22;;;;;;;14.93;6.53;;;21.40;53.00;;;;;;4935856;29;20032;-74
2022/03/15 09:08:48;;;;;;;13.45;6.90;;;21.50;53.20;;;;;;4936067;29;20024;-75
2022/03/15 09:11:14;;;;;;;13.50;6.60;;;21.40;53.20;;;;;;4933736;29;20035;-75
2022/03/15 09:13:39;;;;;;;11.30;6.80;;;21.50;53.40;;;;;;4934715;29;20355;-75
2022/03/15 09:16:05;;;;;;;11.48;6.53;;;21.50;53.30;;;;;;4935800;29;20125;-75
2022/03/15 09:18:32;;;;;;;11.70;6.80;;;21.50;53.30;;;;;;4935646;29;20031;-75
2022/03/15 09:20:58;;;;;;;12.15;6.55;;;21.50;53.30;;;;;;4934177;29;20030;-76
2022/03/15 09:23:24;;;;;;;10.65;6.50;;;21.50;53.30;;;;;;4949958;28;20187;-75
2022/03/15 09:25:49;;;;;;;10.20;6.57;;;21.50;53.40;;;;;;4935685;29;20507;-75
2022/03/15 09:28:17;;;;;;;10.27;6.13;;;21.50;53.40;;;;;;4934208;29;20071;-75
2022/03/15 09:30:46;;;;;;;11.52;6.55;;;21.50;53.40;;;;;;4934045;29;20028;-76
2022/03/15 09:33:13;;;;;;;14.35;6.63;;;21.50;53.40;;;;;;4949697;29;20440;-75
2022/03/15 09:35:41;;;;;;;13.88;7.15;;;21.50;53.50;;;;;;4918871;29;20028;-76
2022/03/15 09:38:08;;;;;;;10.75;6.75;;;21.50;53.50;;;;;;4917492;29;20123;-75
2022/03/15 09:40:33;;;;;;;10.88;6.10;;;21.50;53.50;;;;;;4916041;29;20421;-75
2022/03/15 09:43:01;;;;;;;10.90;6.32;;;21.50;53.50;;;;;;4930750;29;20039;-76
2022/03/15 09:45:33;;;;;;;11.68;6.50;;;21.50;53.50;;;;;;4918419;29;20032;-75
2022/03/15 09:48:01;;;;;;;12.40;6.45;;;21.50;53.50;;;;;;4918959;29;20429;-76
2022/03/15 09:50:27;;;;;;;10.18;6.30;;;21.50;53.60;;;;;;4920144;29;20055;-75
2022/03/15 09:52:55;;;;;;;14.93;6.38;;;21.50;53.70;;;;;;4934723;29;20062;-76
2022/03/15 09:55:21;;;;;;;10.40;5.72;;;21.50;53.70;;;;;;4949060;28;20038;-76
2022/03/15 09:57:47;;;;;;;13.85;6.50;;;21.50;53.70;;;;;;4933696;29;20024;-76
2022/03/15 10:00:16;;;;;;;12.13;6.10;;;21.50;53.70;;;;;;4948962;29;20548;-76
2022/03/15 10:02:44;;;;;;;11.20;5.72;;;21.50;53.80;;;;;;4930411;29;20396;-75
2022/03/15 10:05:11;;;;;;;9.65;5.75;;;21.50;53.80;;;;;;4933753;29;20063;-75
2022/03/15 10:07:37;;;;;;;11.55;6.38;;;21.50;53.80;;;;;;4932615;29;20036;-75
2022/03/15 10:10:06;;;;;;;12.73;6.72;;;21.50;53.90;;;;;;4934472;29;20031;-75
2022/03/15 10:12:34;;;;;;;11.30;5.93;;;21.50;54.00;;;;;;4934398;29;20043;-75
2022/03/15 10:15:19;;;;;;;10.93;5.75;;;21.50;53.90;;;;;;4934311;29;20444;-75
2022/03/15 10:17:48;;;;;;;12.90;6.07;;;21.50;54.10;;;;;;4934324;29;20020;-76
2022/03/15 10:20:18;;;;;;;14.35;6.32;;;21.50;54.10;;;;;;4934277;29;20035;-76
2022/03/15 10:23:01;;;;;;;12.65;5.97;;;21.50;54.00;;;;;;4949524;29;20042;-74
2022/03/15 10:25:29;;;;;;;15.70;6.25;;;21.50;53.90;;;;;;4934466;29;20040;-76
2022/03/15 10:27:57;;;;;;;12.52;6.13;;;21.50;53.90;;;;;;4933920;29;20035;-75
2022/03/15 10:30:25;;;;;;;13.60;6.32;;;21.50;53.90;;;;;;4934217;29;20043;-74
2022/03/15 10:32:51;;;;;;;19.90;6.18;;;21.50;54.00;;;;;;4949215;28;20081;-77
2022/03/15 10:35:25;;;;;;;10.18;5.80;;;21.50;54.10;;;;;;4934428;29;20059;-75
2022/03/15 10:37:52;;;;;;;14.25;6.57;;;21.50;54.20;;;;;;4932712;29;20043;-76
2022/03/15 10:40:30;;;;;;;10.98;5.88;;;21.50;54.10;;;;;;4916880;29;20080;-79
2022/03/15 10:43:09;;;;;;;16.45;6.13;;;21.60;54.30;;;;;;4917415;29;20035;-76
2022/03/15 10:45:38;;;;;;;14.93;5.90;;;21.60;54.20;;;;;;4933955;29;20110;-77
2022/03/15 10:48:14;;;;;;;19.10;6.68;;;21.60;54.10;;;;;;4948980;28;20476;-77
2022/03/15 10:50:56;;;;;;;17.52;6.07;;;21.70;54.30;;;;;;4946800;29;20046;-76
2022/03/15 10:53:34;;;;;;;21.88;5.95;;;21.60;54.10;;;;;;4934201;29;20031;-76
2022/03/15 10:56:17;;;;;;;24.40;6.30;;;21.60;54.10;;;;;;4934071;29;20138;-77
2022/03/15 10:58:48;;;;;;;23.10;7.03;;;21.60;54.50;;;;;;4913993;29;20056;-78
2022/03/15 11:01:17;;;;;;;27.42;13.02;;;21.60;54.00;;;;;;4941880;29;20027;-78
2022/03/15 11:04:03;;;;;;;36.47;16.95;;;21.50;54.70;;;;;;4957047;28;20400;-76
2022/03/15 11:06:45;;;;;;;29.13;18.48;;;21.50;54.20;;;;;;4941661;28;20031;-76
2022/03/15 11:09:35;;;;;;;28.02;19.17;;;21.50;52.20;;;;;;4926254;29;20047;-75
2022/03/15 11:12:05;;;;;;;33.90;19.83;;;21.50;53.70;;;;;;4932695;29;20311;-75
2022/03/15 11:14:36;;;;;;;27.92;16.95;;;21.50;54.80;;;;;;4933757;29;20024;-75
2022/03/15 11:17:06;;;;;;;25.27;14.50;;;21.50;53.60;;;;;;4933902;29;20035;-77
2022/03/15 11:19:35;;;;;;;27.35;15.98;;;21.50;52.90;;;;;;4948236;28;20027;-77
2022/03/15 11:22:01;;;;;;;25.52;15.23;;;21.50;53.70;;;;;;4933955;29;20240;-75
2022/03/15 11:24:34;;;;;;;31.05;12.88;;;21.50;52.20;;;;;;4930619;29;20036;-71
2022/03/15 11:27:01;;;;;;;21.88;13.32;;;21.50;51.30;;;;;;4932884;29;20501;-73
2022/03/15 11:29:28;;;;;;;28.05;12.88;;;21.50;51.40;;;;;;4935840;29;20392;-73
2022/03/15 11:31:56;;;;;;;24.52;11.38;;;21.50;51.20;;;;;;4933993;29;20468;-73
2022/03/15 11:34:24;;;;;;;19.77;11.63;;;21.50;51.70;;;;;;4937120;29;20381;-73
2022/03/15 11:36:52;;;;;;;22.85;10.68;;;21.60;51.70;;;;;;4936453;29;20148;-73
2022/03/15 11:39:19;;;;;;;29.63;11.73;;;21.60;51.80;;;;;;4937271;29;20027;-73
2022/03/15 11:41:46;;;;;;;25.77;9.85;;;21.70;51.80;;;;;;4937452;29;20032;-73
2022/03/15 11:44:38;;;;;;;22.42;10.23;;;21.60;51.50;;;;;;4934251;29;20442;-73
2022/03/15 11:47:16;;;;;;;19.77;9.93;;;21.60;51.40;;;;;;4937099;29;20377;-73
2022/03/15 11:49:52;;;;;;;19.50;8.93;;;21.50;51.20;;;;;;4936900;29;20276;-73
2022/03/15 11:52:37;;;;;;;14.30;9.45;;;21.50;51.20;;;;;;4937527;29;20063;-73
2022/03/15 11:55:13;;;;;;;22.58;10.18;;;21.50;51.20;;;;;;4951836;28;20063;-73
2022/03/15 11:57:50;;;;;;;17.60;8.82;;;21.50;51.20;;;;;;4937167;29;20059;-73
2022/03/15 12:00:42;;;;;;;24.13;10.02;;;21.40;51.70;;;;;;4932353;29;20027;-73
2022/03/15 12:03:09;;;;;;;20.75;9.02;;;21.50;51.30;;;;;;4936900;29;20674;-73
2022/03/15 12:05:47;;;;;;;21.90;9.32;;;21.50;51.20;;;;;;4924244;29;20046;-73
2022/03/15 12:08:18;;;;;;;20.58;8.90;;;21.50;51.30;;;;;;4935842;29;20028;-73
2022/03/15 12:11:05;;;;;;;16.13;8.80;;;21.50;51.40;;;;;;4951313;29;20032;-72
2022/03/15 12:13:37;;;;;;;;;;;21.50;51.50;;;;;;4935811;29;20557;-72
2022/03/15 12:16:13;;;;;;;16.33;8.10;;;21.50;51.40;;;;;;4935688;28;19918;-73
2022/03/15 12:18:48;;;;;;;15.75;8.20;;;21.60;52.30;;;;;;4936391;29;20370;-72
2022/03/15 12:21:15;;;;;;;15.70;7.70;;;21.50;52.00;;;;;;4935358;29;20020;-73
2022/03/15 12:23:43;;;;;;;17.60;7.60;;;21.50;52.60;;;;;;4936183;23;20401;-67
2022/03/15 12:26:25;;;;;;;12.88;6.72;;;21.60;52.70;;;;;;4967818;28;20066;-66
2022/03/15 12:29:03;;;;;;;18.58;7.47;;;21.60;51.60;;;;;;4989351;28;20022;-66
2022/03/15 12:31:33;;;;;;;12.73;6.95;;;21.60;52.00;;;;;;4974561;28;20062;-66
2022/03/15 12:34:01;;;;;;;15.07;7.18;;;21.60;52.20;;;;;;4974705;28;20433;-66
2022/03/15 12:36:45;;;;;;;13.82;7.35;;;21.60;52.30;;;;;;4974884;28;20018;-66